Accueil
METAR-TAF:

METAR-TAF

Aéroports :

Aéroport international Hévíz-Balaton

Hévíz, Hongrie

latitude: 46-41-11N, longitude: 017-09-33E, altitude: 124 m

Observation

Le bulletin a été fait il y a 33 minutes, à 23:45 UTC
Vent 2 kt de direction variable
Température 1°C
Humidité 100%
Pression 1006 hPa
Visibilité: 1900 m
brume

METAR: LHSM 032345Z AUTO VRB02KT 1900 BR VV003 01/01 Q1006

Heure: 01:18 (00:18 UTC)

Prévision

Le bulletin a été fait il y a 13 heures et 3 minutes, à 11:15 UTC
Prévision valable du 03 à 12 UTC au 03 à 21 UTC
Vent 5 kt de est
Visibilité: 7000 m
Nuages épars à une hauteur de 1000 ft
Ciel couvert à une hauteur de 2500 ft
Temporairement
du 03 à 12 UTC au 03 à 21 UTC
Visibilité: 3000 m
Ciel couvert à une hauteur de 600 ft
pluie, brume

TAF: LHSM 031115Z 0312/0321 10005KT 7000 SCT010 OVC025 TEMPO 0312/0321 3000 RA BR OVC006

Observations et prévisions météorologiques de plus de 4000 aéroports (messages METAR et TAF).

Les stations disponibles sont représentées par des disques jaunes et rouges sur la carte.

Passer la souris dessus pour voir le nom de la station.

Cliquer dessus pour voir les observations et prévisions météorologiques.

Pour changer de carte: cliquez sur les boutons verts avec une croix noire pour zoomer, sur le bouton vert avec un tiret pour effectuer un zoom arrière, ou sur les flèches vertes pour les cartes adjacentes.


METAR-TAF: